createdAt,value
2023-03-08T00:02:06.682Z,92.40
2023-03-08T00:04:35.055Z,92.30
2023-03-08T00:07:07.106Z,92.20
2023-03-08T00:09:35.007Z,92.10
2023-03-08T00:12:07.228Z,92.80
2023-03-08T00:14:35.102Z,92.50
2023-03-08T00:17:03.436Z,92.90
2023-03-08T00:19:31.347Z,92.90
2023-03-08T00:21:59.474Z,93.00
2023-03-08T00:24:28.686Z,92.90
2023-03-08T00:26:56.585Z,92.00
2023-03-08T00:29:27.054Z,93.00
2023-03-08T00:31:58.112Z,93.00
2023-03-08T00:34:28.980Z,93.00
2023-03-08T00:36:59.860Z,92.80
2023-03-08T00:39:41.284Z,92.90
2023-03-08T00:42:34.263Z,92.70
2023-03-08T00:45:02.099Z,92.80
2023-03-08T00:47:32.795Z,92.90
2023-03-08T00:50:02.833Z,92.90
2023-03-08T00:52:30.701Z,92.70
2023-03-08T00:55:02.921Z,92.50
2023-03-08T00:57:31.387Z,93.00
2023-03-08T00:59:59.243Z,93.10
2023-03-08T01:02:27.111Z,92.80
2023-03-08T01:05:01.190Z,92.60
2023-03-08T01:07:34.975Z,92.40
2023-03-08T01:10:15.693Z,92.30
2023-03-08T01:12:49.738Z,92.40
2023-03-08T01:15:20.350Z,92.10
2023-03-08T01:17:48.173Z,91.90
2023-03-08T01:20:16.029Z,92.00
2023-03-08T01:22:47.045Z,91.90
2023-03-08T01:25:19.541Z,91.90
2023-03-08T01:27:53.262Z,91.70
2023-03-08T01:30:24.203Z,91.90
2023-03-08T01:32:58.006Z,92.00
2023-03-08T01:35:25.893Z,92.30
2023-03-08T01:37:56.940Z,92.30
2023-03-08T01:40:26.167Z,92.20
2023-03-08T01:42:56.802Z,92.40
2023-03-08T01:46:04.929Z,92.70
2023-03-08T01:48:40.926Z,92.70
2023-03-08T01:51:15.455Z,92.40
2023-03-08T01:53:44.857Z,92.40
2023-03-08T01:56:19.789Z,92.30
2023-03-08T01:59:06.501Z,92.20
2023-03-08T02:01:35.480Z,92.10
2023-03-08T02:04:04.156Z,92.20
2023-03-08T02:06:32.033Z,92.30
2023-03-08T02:09:12.218Z,92.30
2023-03-08T02:11:43.406Z,92.80
2023-03-08T02:14:11.392Z,92.50
2023-03-08T02:16:39.339Z,92.70
2023-03-08T02:19:21.239Z,92.90
2023-03-08T02:21:55.300Z,93.00
2023-03-08T02:24:29.876Z,93.10
2023-03-08T02:27:04.018Z,92.20
2023-03-08T02:29:49.583Z,92.80
2023-03-08T02:32:17.510Z,92.80
2023-03-08T02:34:47.597Z,93.30
2023-03-08T02:37:15.436Z,93.30
2023-03-08T02:39:51.272Z,88.10
2023-03-08T02:42:22.299Z,86.80
2023-03-08T02:44:52.373Z,92.20
2023-03-08T02:47:32.281Z,93.60
2023-03-08T02:50:04.593Z,93.80
2023-03-08T02:52:32.601Z,94.20
2023-03-08T02:55:07.766Z,93.90
2023-03-08T02:57:38.479Z,93.60
2023-03-08T03:00:07.701Z,93.40
2023-03-08T03:02:50.451Z,92.90
2023-03-08T03:05:18.489Z,90.00
2023-03-08T03:07:46.352Z,91.20
2023-03-08T03:10:15.626Z,92.00
2023-03-08T03:12:43.988Z,93.10
2023-03-08T03:15:13.049Z,92.80
2023-03-08T03:17:40.941Z,93.00
2023-03-08T03:20:11.042Z,93.80
2023-03-08T03:22:38.967Z,93.10
2023-03-08T03:25:12.815Z,91.70
2023-03-08T03:27:42.069Z,92.40
2023-03-08T03:30:13.540Z,94.40
2023-03-08T03:32:44.453Z,94.40
2023-03-08T03:35:12.330Z,94.30
2023-03-08T03:37:43.178Z,94.20
2023-03-08T03:40:16.982Z,94.00
2023-03-08T03:42:52.253Z,94.10
2023-03-08T03:45:29.156Z,90.40
2023-03-08T03:48:03.364Z,90.20
2023-03-08T03:50:31.240Z,92.40
2023-03-08T03:53:11.092Z,94.30
2023-03-08T03:55:44.698Z,91.20
2023-03-08T03:58:16.282Z,90.60
2023-03-08T04:00:44.296Z,94.20
2023-03-08T04:03:14.424Z,94.90
2023-03-08T04:05:44.523Z,93.20
2023-03-08T04:08:15.486Z,91.30
2023-03-08T04:10:49.217Z,91.00
2023-03-08T04:13:18.415Z,93.90
2023-03-08T04:15:52.428Z,94.20
2023-03-08T04:18:23.582Z,92.40
2023-03-08T04:20:54.426Z,91.40
2023-03-08T04:23:25.213Z,91.60
2023-03-08T04:25:53.069Z,92.60
2023-03-08T04:28:25.195Z,91.20
2023-03-08T04:30:59.350Z,91.30
2023-03-08T04:33:27.525Z,91.70
2023-03-08T04:36:01.539Z,92.60
2023-03-08T04:38:29.393Z,92.00
2023-03-08T04:41:15.311Z,92.20
2023-03-08T04:43:47.107Z,92.30
2023-03-08T04:46:19.048Z,92.80
2023-03-08T04:48:47.713Z,94.20
2023-03-08T04:51:22.382Z,93.60
2023-03-08T04:53:57.973Z,93.00
2023-03-08T04:56:31.972Z,95.40
2023-03-08T04:59:07.138Z,97.50
2023-03-08T05:01:42.634Z,97.60
2023-03-08T05:04:11.706Z,96.30
2023-03-08T05:06:42.310Z,94.60
2023-03-08T05:09:10.168Z,95.20
2023-03-08T05:11:47.169Z,94.90
2023-03-08T05:14:16.403Z,92.40
2023-03-08T05:16:49.298Z,92.10
2023-03-08T05:19:17.221Z,94.60
2023-03-08T05:21:47.469Z,95.90
2023-03-08T05:24:21.518Z,95.30
2023-03-08T05:26:56.678Z,93.40
2023-03-08T05:29:26.084Z,93.90
2023-03-08T05:31:54.127Z,93.90
2023-03-08T05:34:25.358Z,93.10
2023-03-08T05:36:56.154Z,92.80
2023-03-08T05:39:30.860Z,94.10
2023-03-08T05:42:01.772Z,94.90
2023-03-08T05:44:39.864Z,93.00
2023-03-08T05:47:10.513Z,92.40
2023-03-08T05:49:47.546Z,92.50
2023-03-08T05:52:15.462Z,93.80
2023-03-08T05:54:43.330Z,93.90
2023-03-08T05:57:16.458Z,94.20
2023-03-08T05:59:48.505Z,92.90
2023-03-08T06:02:19.203Z,93.30
2023-03-08T06:04:59.365Z,95.40
2023-03-08T06:07:36.263Z,92.10
2023-03-08T06:10:13.327Z,93.60
2023-03-08T06:12:49.355Z,92.70
2023-03-08T06:15:18.793Z,93.50
2023-03-08T06:17:46.724Z,91.40
2023-03-08T06:20:19.458Z,93.10
2023-03-08T06:22:47.317Z,96.00
2023-03-08T06:25:15.250Z,92.50
2023-03-08T06:27:46.126Z,92.70
2023-03-08T06:30:14.813Z,94.60
2023-03-08T06:32:46.709Z,93.40
2023-03-08T06:35:17.510Z,93.30
2023-03-08T06:37:57.355Z,93.00
2023-03-08T06:40:34.378Z,92.70
2023-03-08T06:43:02.469Z,95.00
2023-03-08T06:45:34.303Z,93.50
2023-03-08T06:48:06.637Z,91.30
2023-03-08T06:50:34.950Z,92.90
2023-03-08T06:53:03.236Z,94.30
2023-03-08T06:55:35.857Z,92.30
2023-03-08T06:58:03.931Z,92.60
2023-03-08T07:00:32.586Z,91.00
2023-03-08T07:03:00.604Z,93.90
2023-03-08T07:05:29.954Z,91.40
2023-03-08T07:08:01.089Z,91.80
2023-03-08T07:10:28.994Z,91.40
2023-03-08T07:12:56.912Z,91.80
2023-03-08T07:15:25.588Z,92.20
2023-03-08T07:17:56.186Z,92.10
2023-03-08T07:20:26.120Z,92.00
2023-03-08T07:22:55.799Z,93.00
2023-03-08T07:25:23.654Z,93.90
2023-03-08T07:27:59.212Z,94.10
2023-03-08T07:30:27.472Z,95.70
2023-03-08T07:32:58.257Z,97.00
2023-03-08T07:35:26.165Z,96.20
2023-03-08T07:37:58.028Z,95.00
2023-03-08T07:40:25.974Z,95.10
2023-03-08T07:42:53.957Z,96.50
2023-03-08T07:45:24.810Z,97.40
2023-03-08T07:47:59.210Z,98.10
2023-03-08T07:50:27.569Z,99.30
2023-03-08T07:52:56.792Z,98.10
2023-03-08T07:55:25.468Z,97.30
2023-03-08T07:57:59.482Z,96.20
2023-03-08T08:00:30.483Z,96.50
2023-03-08T08:03:01.312Z,96.40
2023-03-08T08:05:31.558Z,96.50
2023-03-08T08:08:06.883Z,95.80
2023-03-08T08:10:34.739Z,95.70
2023-03-08T08:13:11.701Z,94.30
2023-03-08T08:15:39.608Z,92.80
2023-03-08T08:18:09.924Z,93.30
2023-03-08T08:20:37.869Z,92.70
2023-03-08T08:23:10.123Z,93.30
2023-03-08T08:25:40.621Z,94.30
2023-03-08T08:28:11.666Z,96.90
2023-03-08T08:33:24.137Z,99.10
2023-03-08T08:35:52.061Z,99.20
2023-03-08T08:38:21.304Z,98.70
2023-03-08T08:40:49.229Z,98.90
2023-03-08T08:43:18.396Z,99.60
2023-03-08T08:45:49.015Z,99.90
2023-03-08T08:48:19.464Z,99.90
2023-03-08T08:50:47.318Z,99.90
2023-03-08T08:53:15.439Z,99.90
2023-03-08T08:55:45.760Z,99.90
2023-03-08T08:58:14.159Z,99.90
2023-03-08T09:00:42.560Z,99.90
2023-03-08T09:03:12.669Z,99.90
2023-03-08T09:05:44.997Z,99.90
2023-03-08T09:08:13.479Z,99.90
2023-03-08T09:10:42.026Z,99.90
2023-03-08T09:13:12.941Z,99.90
2023-03-08T09:15:40.851Z,99.90
2023-03-08T09:18:08.742Z,99.90
2023-03-08T09:20:39.407Z,99.90
2023-03-08T09:23:08.383Z,99.90
2023-03-08T09:25:39.032Z,99.90
2023-03-08T09:28:07.041Z,99.90
2023-03-08T09:30:39.458Z,99.90
2023-03-08T09:33:10.070Z,99.90
2023-03-08T09:35:40.403Z,99.90
2023-03-08T09:38:11.561Z,99.90
2023-03-08T09:40:55.295Z,99.90
2023-03-08T09:43:43.175Z,99.90
2023-03-08T09:46:16.144Z,99.90
2023-03-08T09:48:47.286Z,99.90
2023-03-08T09:51:18.040Z,99.90
2023-03-08T09:53:50.581Z,99.90
2023-03-08T09:56:24.451Z,99.90
2023-03-08T09:58:56.532Z,99.90
2023-03-08T10:01:37.409Z,99.90
2023-03-08T10:04:34.615Z,99.90
2023-03-08T10:07:28.314Z,99.90
2023-03-08T10:10:19.800Z,99.90
2023-03-08T10:13:04.999Z,99.90
2023-03-08T10:15:40.864Z,99.90
2023-03-08T10:18:18.148Z,99.90
2023-03-08T10:20:50.069Z,99.90
2023-03-08T10:23:19.579Z,99.90
2023-03-08T10:25:51.534Z,99.90
2023-03-08T10:28:21.725Z,99.90
2023-03-08T10:30:51.945Z,99.90
2023-03-08T10:33:25.287Z,99.90
2023-03-08T10:36:04.542Z,99.90
2023-03-08T10:38:36.478Z,99.90
2023-03-08T10:41:07.336Z,99.90
2023-03-08T10:43:41.250Z,99.90
2023-03-08T10:46:14.315Z,99.90
2023-03-08T10:48:47.878Z,99.90
2023-03-08T10:51:21.167Z,99.90
2023-03-08T10:53:58.889Z,99.90
2023-03-08T10:56:32.835Z,99.90
2023-03-08T10:59:01.291Z,99.90
2023-03-08T11:01:31.889Z,99.90
2023-03-08T11:04:05.021Z,99.90
2023-03-08T11:06:36.728Z,99.90
2023-03-08T11:09:21.620Z,99.90
2023-03-08T11:12:00.025Z,99.90
2023-03-08T11:14:35.349Z,99.90
2023-03-08T11:17:16.642Z,99.90
2023-03-08T11:19:59.830Z,99.90
2023-03-08T11:22:50.412Z,99.90
2023-03-08T11:25:44.154Z,99.90
2023-03-08T11:28:44.690Z,99.90
2023-03-08T11:31:27.094Z,99.90
2023-03-08T11:34:35.463Z,99.90
2023-03-08T11:37:12.716Z,99.90
2023-03-08T11:39:46.263Z,99.90
2023-03-08T11:42:29.515Z,99.90
2023-03-08T11:45:22.624Z,99.90
2023-03-08T11:48:42.788Z,99.90
2023-03-08T11:51:23.259Z,99.90
2023-03-08T11:54:03.785Z,99.90
2023-03-08T11:56:55.503Z,99.90
2023-03-08T11:59:33.932Z,99.90
2023-03-08T12:02:10.812Z,99.90
2023-03-08T12:04:56.423Z,99.90
2023-03-08T12:07:29.667Z,99.90
2023-03-08T12:10:05.172Z,99.90
2023-03-08T12:12:38.559Z,99.90
2023-03-08T12:15:18.169Z,99.90
2023-03-08T12:17:55.887Z,99.90
2023-03-08T12:20:36.265Z,99.90
2023-03-08T12:23:22.069Z,99.90
2023-03-08T12:26:05.270Z,99.90
2023-03-08T12:28:39.622Z,99.90
2023-03-08T12:31:30.058Z,99.90
2023-03-08T12:34:03.898Z,99.90
2023-03-08T12:36:45.679Z,99.90
2023-03-08T12:39:32.169Z,99.90
2023-03-08T12:42:04.127Z,99.90
2023-03-08T12:44:32.426Z,99.90
2023-03-08T12:47:04.483Z,99.90
2023-03-08T12:49:37.561Z,99.90
2023-03-08T12:52:08.313Z,99.90
2023-03-08T12:54:37.136Z,99.90
2023-03-08T12:57:23.252Z,99.90
2023-03-08T12:59:58.592Z,99.90
2023-03-08T13:02:38.787Z,99.90
2023-03-08T13:05:20.078Z,99.90
2023-03-08T13:08:04.698Z,99.90
2023-03-08T13:10:40.127Z,99.90
2023-03-08T13:13:38.242Z,99.90
2023-03-08T13:16:21.204Z,99.90
2023-03-08T13:18:53.942Z,99.90
2023-03-08T13:21:34.428Z,99.90
2023-03-08T13:24:15.617Z,99.90
2023-03-08T13:27:00.804Z,99.90
2023-03-08T13:29:34.968Z,99.90
2023-03-08T13:32:08.563Z,99.90
2023-03-08T13:34:36.960Z,99.90
2023-03-08T13:37:21.562Z,99.90
2023-03-08T13:39:53.988Z,99.90
2023-03-08T13:42:28.482Z,99.90
2023-03-08T13:45:11.553Z,99.90
2023-03-08T13:47:40.887Z,99.90
2023-03-08T13:50:21.491Z,99.90
2023-03-08T13:52:49.789Z,99.90
2023-03-08T13:55:21.974Z,99.90
2023-03-08T13:57:55.269Z,99.90
2023-03-08T14:00:35.409Z,99.90
2023-03-08T14:03:21.178Z,99.90
2023-03-08T14:05:49.087Z,99.90
2023-03-08T14:08:21.698Z,99.90
2023-03-08T14:10:56.966Z,99.90
2023-03-08T14:13:28.305Z,99.90
2023-03-08T14:15:59.709Z,99.90
2023-03-08T14:18:37.559Z,99.90
2023-03-08T14:21:24.990Z,99.90
2023-03-08T14:23:57.266Z,99.90
2023-03-08T14:26:39.184Z,99.90
2023-03-08T14:29:21.536Z,99.90
2023-03-08T14:31:56.504Z,99.90
2023-03-08T14:34:28.186Z,99.90
2023-03-08T14:37:04.495Z,99.90
2023-03-08T14:39:34.169Z,99.90
2023-03-08T14:42:12.152Z,99.90
2023-03-08T14:44:43.323Z,99.90
2023-03-08T14:47:24.751Z,99.90
2023-03-08T14:50:05.081Z,99.90
2023-03-08T14:52:36.166Z,99.90
2023-03-08T14:55:21.990Z,99.90
2023-03-08T14:57:50.321Z,99.90
2023-03-08T15:00:22.830Z,99.90
2023-03-08T15:02:52.064Z,99.90
2023-03-08T15:05:29.196Z,99.90
2023-03-08T15:08:01.275Z,99.90
2023-03-08T15:10:34.369Z,99.90
2023-03-08T15:13:02.272Z,99.90
2023-03-08T15:15:30.173Z,99.90
2023-03-08T15:18:01.905Z,99.90
2023-03-08T15:20:31.938Z,99.90
2023-03-08T15:23:02.502Z,99.90
2023-03-08T15:25:32.619Z,99.90
2023-03-08T15:28:06.877Z,99.90
2023-03-08T15:30:47.932Z,99.90
2023-03-08T15:33:17.200Z,99.90
2023-03-08T15:35:45.860Z,99.90
2023-03-08T15:38:19.043Z,99.90
2023-03-08T15:40:55.720Z,99.90
2023-03-08T15:43:25.862Z,99.90
2023-03-08T15:45:56.879Z,99.90
2023-03-08T15:48:26.084Z,99.90
2023-03-08T15:51:05.573Z,99.90
2023-03-08T15:53:36.452Z,99.90
2023-03-08T15:56:08.102Z,99.90
2023-03-08T15:58:35.973Z,99.90
2023-03-08T16:01:03.860Z,99.90
2023-03-08T16:03:34.876Z,99.90
2023-03-08T16:06:11.284Z,99.90
2023-03-08T16:08:39.690Z,99.90
2023-03-08T16:11:11.642Z,99.90
2023-03-08T16:13:39.762Z,99.90
2023-03-08T16:16:13.936Z,99.90
2023-03-08T16:18:56.534Z,99.90
2023-03-08T16:21:24.429Z,99.90
2023-03-08T16:23:55.546Z,99.90
2023-03-08T16:26:24.152Z,99.90
2023-03-08T16:28:51.994Z,99.90
2023-03-08T16:31:23.562Z,99.90
2023-03-08T16:33:58.980Z,99.90
2023-03-08T16:36:34.208Z,99.90
2023-03-08T16:39:05.539Z,99.90
2023-03-08T16:41:40.914Z,99.90
2023-03-08T16:44:20.364Z,99.90
2023-03-08T16:46:51.618Z,99.90
2023-03-08T16:49:22.718Z,99.90
2023-03-08T16:51:59.472Z,99.90
2023-03-08T16:54:34.766Z,99.90
2023-03-08T16:57:17.837Z,99.90
2023-03-08T16:59:49.688Z,99.90
2023-03-08T17:02:19.504Z,99.90
2023-03-08T17:04:50.132Z,99.90
2023-03-08T17:07:18.364Z,99.90
2023-03-08T17:09:46.513Z,99.90
2023-03-08T17:12:19.387Z,99.90
2023-03-08T17:14:47.302Z,99.90
2023-03-08T17:17:17.693Z,99.90
2023-03-08T17:19:52.091Z,99.90
2023-03-08T17:22:19.967Z,99.90
2023-03-08T17:24:47.842Z,99.90
2023-03-08T17:27:18.529Z,99.90
2023-03-08T17:29:46.366Z,99.90
2023-03-08T17:32:17.351Z,99.90
2023-03-08T17:34:49.754Z,99.90
2023-03-08T17:37:18.707Z,99.90
2023-03-08T17:39:46.690Z,99.90
2023-03-08T17:42:18.155Z,99.90
2023-03-08T17:44:48.333Z,99.90
2023-03-08T17:47:16.192Z,99.90
2023-03-08T17:49:44.041Z,99.90
2023-03-08T17:52:13.270Z,99.90
2023-03-08T17:54:54.363Z,99.90
2023-03-08T17:57:25.173Z,99.90
2023-03-08T17:59:56.769Z,99.90
2023-03-08T18:02:32.100Z,99.90
2023-03-08T18:05:05.223Z,99.90
2023-03-08T18:07:41.865Z,99.90
2023-03-08T18:10:13.219Z,99.90
2023-03-08T18:12:50.846Z,99.90
2023-03-08T18:15:18.865Z,99.90
2023-03-08T18:17:47.662Z,99.90
2023-03-08T18:20:15.575Z,99.90
2023-03-08T18:22:50.710Z,99.90
2023-03-08T18:25:27.849Z,99.90
2023-03-08T18:27:55.703Z,99.90
2023-03-08T18:30:26.600Z,99.90
2023-03-08T18:32:57.318Z,99.90
2023-03-08T18:35:28.347Z,99.90
2023-03-08T18:38:00.481Z,99.90
2023-03-08T18:40:29.399Z,99.90
2023-03-08T18:43:00.159Z,99.90
2023-03-08T18:45:30.592Z,99.90
2023-03-08T18:47:58.497Z,99.90
2023-03-08T18:50:26.786Z,99.90
2023-03-08T18:52:56.805Z,99.90
2023-03-08T18:55:41.841Z,99.90
2023-03-08T18:58:12.866Z,99.90
2023-03-08T19:00:46.735Z,99.90
2023-03-08T19:03:20.955Z,99.90
2023-03-08T19:05:48.812Z,99.90
2023-03-08T19:08:23.040Z,99.90
2023-03-08T19:10:52.243Z,99.90
2023-03-08T19:13:29.098Z,99.90
2023-03-08T19:15:57.071Z,99.90
2023-03-08T19:18:28.029Z,99.90
2023-03-08T19:20:55.885Z,99.90
2023-03-08T19:23:26.881Z,99.90
2023-03-08T19:26:30.704Z,99.90
2023-03-08T19:29:00.724Z,99.90
2023-03-08T19:31:29.880Z,99.90
2023-03-08T19:34:08.995Z,99.90
2023-03-08T19:36:45.257Z,99.90
2023-03-08T19:39:24.255Z,99.90
2023-03-08T19:42:01.559Z,99.90
2023-03-08T19:44:30.351Z,99.90
2023-03-08T19:46:58.879Z,99.90
2023-03-08T19:49:31.446Z,99.90
2023-03-08T19:52:01.240Z,99.90
2023-03-08T19:54:32.714Z,99.90
2023-03-08T19:57:08.194Z,99.90
2023-03-08T19:59:37.362Z,99.90
2023-03-08T20:02:09.917Z,99.90
2023-03-08T20:04:37.782Z,99.90
2023-03-08T20:07:05.742Z,99.90
2023-03-08T20:09:36.396Z,99.90
2023-03-08T20:12:04.464Z,99.90
2023-03-08T20:14:39.517Z,99.90
2023-03-08T20:17:10.387Z,99.90
2023-03-08T20:19:53.120Z,99.90
2023-03-08T20:22:20.951Z,99.90
2023-03-08T20:24:48.784Z,99.90
2023-03-08T20:27:16.687Z,99.90
2023-03-08T20:29:45.900Z,99.90
2023-03-08T20:32:14.215Z,99.90
2023-03-08T20:34:42.093Z,99.90
2023-03-08T20:37:09.965Z,99.90
2023-03-08T20:39:41.217Z,99.90
2023-03-08T20:42:09.078Z,99.90
2023-03-08T20:44:36.965Z,99.90
2023-03-08T20:47:06.682Z,99.90
2023-03-08T20:49:40.811Z,99.90
2023-03-08T20:52:11.590Z,99.90
2023-03-08T20:54:39.449Z,99.90
2023-03-08T20:57:17.025Z,99.90
2023-03-08T20:59:50.273Z,99.90
2023-03-08T21:02:19.532Z,99.90
2023-03-08T21:04:53.210Z,99.90
2023-03-08T21:07:23.461Z,99.90
2023-03-08T21:09:56.611Z,99.90
2023-03-08T21:12:33.728Z,99.90
2023-03-08T21:15:05.164Z,99.90
2023-03-08T21:17:36.737Z,99.90
2023-03-08T21:20:09.476Z,99.90
2023-03-08T21:22:43.518Z,99.90
2023-03-08T21:25:12.166Z,99.90
2023-03-08T21:27:43.168Z,99.90
2023-03-08T21:30:12.586Z,99.90
2023-03-08T21:32:41.850Z,99.90
2023-03-08T21:35:12.933Z,99.90
2023-03-08T21:37:40.788Z,99.90
2023-03-08T21:40:11.192Z,99.90
2023-03-08T21:42:45.030Z,99.90
2023-03-08T21:45:15.533Z,99.90
2023-03-08T21:47:53.277Z,99.90
2023-03-08T21:50:24.121Z,99.90
2023-03-08T21:52:52.048Z,99.90
2023-03-08T21:55:25.452Z,99.90
2023-03-08T21:57:53.281Z,99.90
2023-03-08T22:00:29.513Z,99.90
2023-03-08T22:03:05.254Z,99.90
2023-03-08T22:05:42.538Z,99.90
2023-03-08T22:08:13.571Z,99.90
2023-03-08T22:10:41.399Z,99.90
2023-03-08T22:13:12.256Z,99.90
2023-03-08T22:15:40.147Z,99.90
2023-03-08T22:18:14.016Z,99.90
2023-03-08T22:20:48.052Z,99.90
2023-03-08T22:23:19.007Z,99.90
2023-03-08T22:25:46.888Z,99.90
2023-03-08T22:28:21.046Z,99.90
2023-03-08T22:30:56.102Z,99.90
2023-03-08T22:33:28.216Z,99.90
2023-03-08T22:36:09.964Z,99.90
2023-03-08T22:38:38.207Z,99.90
2023-03-08T22:41:13.226Z,99.90
2023-03-08T22:43:58.321Z,99.90
2023-03-08T22:46:29.129Z,99.90
2023-03-08T22:48:59.622Z,99.90
2023-03-08T22:51:34.440Z,99.90
2023-03-08T22:54:03.928Z,99.90
2023-03-08T22:56:35.192Z,99.90
2023-03-08T22:59:08.910Z,99.90
2023-03-08T23:01:39.208Z,99.90
2023-03-08T23:04:13.132Z,99.90
2023-03-08T23:06:41.282Z,99.90
2023-03-08T23:09:12.988Z,99.90
2023-03-08T23:11:42.201Z,99.90
2023-03-08T23:14:13.530Z,99.90
2023-03-08T23:16:42.954Z,99.90
2023-03-08T23:19:16.404Z,99.90
2023-03-08T23:21:44.637Z,99.90
2023-03-08T23:24:13.003Z,99.90
2023-03-08T23:26:45.750Z,99.90
2023-03-08T23:29:14.867Z,99.90
2023-03-08T23:31:46.903Z,99.90
2023-03-08T23:34:16.175Z,99.90
2023-03-08T23:36:44.053Z,99.90
2023-03-08T23:39:12.346Z,99.90
2023-03-08T23:41:51.994Z,99.90
2023-03-08T23:44:27.829Z,99.90
2023-03-08T23:46:58.753Z,99.90
2023-03-08T23:49:27.987Z,99.90
2023-03-08T23:51:58.601Z,99.90
2023-03-08T23:54:29.564Z,99.90
2023-03-08T23:56:57.409Z,99.90
2023-03-08T23:59:31.116Z,99.90
